Time;durP1;ratioP1;P1;durP2;ratioP2;P2;SDS_P1;SDS_P2;PMS_P1;PMS_P2;Temp;Humidity;BMP_temperature;BMP_pressure;BME280_temperature;BME280_humidity;BME280_pressure;Samples;Min_cycle;Max_cycle;Signal;HPM_P1;HPM_P2
2022/05/21 00:01:47;;;;;;;;;;;;;;;6.68;63.72;95885.91;5024081;28;20561;-64
2022/05/21 00:04:12;;;;;;;;;;;;;;;6.62;63.81;95896.09;5023713;28;20043;-67
2022/05/21 00:06:38;;;;;;;;;;;;;;;6.08;65.74;95896.66;5024206;28;19973;-68
2022/05/21 00:09:04;;;;;;;;;;;;;;;5.91;65.92;95897.41;5017359;28;19997;-68
2022/05/21 00:11:29;;;;;;;;;;;;;;;6.32;64.90;95905.09;5023497;28;19995;-69
2022/05/21 00:13:55;;;;;;;;;;;;;;;6.09;65.40;95902.78;5024190;28;20064;-68
2022/05/21 00:16:23;;;;;;;;;;;;;;;6.17;65.31;95907.34;5023665;28;19993;-68
2022/05/21 00:18:48;;;;;;;;;;;;;;;5.77;66.98;95903.94;5023991;28;19969;-67
2022/05/21 00:21:14;;;;;;;;;;;;;;;6.25;64.87;95902.19;5023296;28;20347;-68
2022/05/21 00:23:40;;;;;;;;;;;;;;;6.08;65.48;95912.53;5023240;28;19997;-68
2022/05/21 00:26:09;;;;;;;;;;;;;;;5.80;66.67;95908.94;5023611;28;20010;-68
2022/05/21 00:28:34;;;;;;;;;;;;;;;5.54;66.73;95920.09;5023515;28;20001;-67
2022/05/21 00:31:00;;;;;;;;;;;;;;;5.12;67.59;95911.44;5023481;28;19997;-68
2022/05/21 00:33:26;;;;;;;;;;;;;;;5.51;65.70;95909.81;5023201;28;20040;-67
2022/05/21 00:35:52;;;;;;;;;;;;;;;5.50;66.05;95908.97;5023018;28;19994;-67
2022/05/21 00:38:17;;;;;;;;;;;;;;;5.59;66.06;95913.44;5017585;28;20421;-67
2022/05/21 00:40:43;;;;;;;;;;;;;;;5.71;65.41;95910.63;5017329;28;20454;-68
2022/05/21 00:43:28;;;;;;;;;;;;;;;6.15;63.95;95904.84;5023516;28;20076;-68
2022/05/21 00:45:54;;;;;;;;;;;;;;;5.59;66.06;95910.78;5012554;28;20043;-67
2022/05/21 00:48:19;;;;;;;;;;;;;;;6.18;64.29;95909.84;5023002;28;20428;-68
2022/05/21 00:50:44;;;;;;;;;;;;;;;6.10;63.36;95915.03;5023372;28;20243;-68
2022/05/21 00:53:11;;;;;;;;;;;;;;;5.29;66.10;95917.84;5023182;28;19994;-67
2022/05/21 00:55:36;;;;;;;;;;;;;;;5.61;65.61;95921.19;5023042;28;20573;-67
2022/05/21 01:00:46;;;;;;;;;;;;;;;6.12;63.27;95919.19;5021389;28;20244;-68
2022/05/21 01:03:12;;;;;;;;;;;;;;;5.51;65.75;95930.94;5022920;28;20374;-67
2022/05/21 01:05:37;;;;;;;;;;;;;;;6.34;63.19;95932.22;5022150;28;20443;-67
2022/05/21 01:08:02;;;;;;;;;;;;;;;6.29;63.47;95935.28;5018563;28;19993;-67
2022/05/21 01:10:28;;;;;;;;;;;;;;;6.63;62.94;95933.97;5021666;28;20456;-68
2022/05/21 01:12:53;;;;;;;;;;;;;;;6.23;64.02;95934.03;5021187;28;20047;-68
2022/05/21 01:15:20;;;;;;;;;;;;;;;6.43;63.50;95935.81;5022687;28;19970;-68
2022/05/21 01:17:46;;;;;;;;;;;;;;;5.97;65.08;95936.47;5022888;28;20482;-68
2022/05/21 01:20:13;;;;;;;;;;;;;;;6.31;64.09;95932.50;5022239;28;20017;-68
2022/05/21 01:22:52;;;;;;;;;;;;;;;6.39;63.80;95937.91;5023247;28;20031;-69
2022/05/21 01:25:18;;;;;;;;;;;;;;;5.96;65.27;95940.91;5008298;28;20104;-68
2022/05/21 01:27:43;;;;;;;;;;;;;;;6.05;64.52;95939.25;5022309;28;20292;-67
2022/05/21 01:30:09;;;;;;;;;;;;;;;5.45;66.81;95945.53;5022383;28;20033;-67
2022/05/21 01:32:35;;;;;;;;;;;;;;;5.96;65.29;95940.09;5020868;28;20551;-68
2022/05/21 01:35:00;;;;;;;;;;;;;;;6.12;64.44;95950.06;5022560;28;19978;-67
2022/05/21 01:37:25;;;;;;;;;;;;;;;5.80;65.05;95961.78;5022435;28;20033;-68
2022/05/21 01:39:50;;;;;;;;;;;;;;;4.92;70.19;95947.44;5009389;28;20366;-67
2022/05/21 01:42:16;;;;;;;;;;;;;;;5.55;67.26;95945.53;5009412;28;20599;-67
2022/05/21 01:44:42;;;;;;;;;;;;;;;5.16;67.74;95955.06;5020105;28;20088;-67
2022/05/21 01:47:08;;;;;;;;;;;;;;;5.58;66.71;95953.19;5022157;28;20186;-67
2022/05/21 01:49:33;;;;;;;;;;;;;;;5.51;66.21;95957.34;5021529;28;20032;-67
2022/05/21 01:51:58;;;;;;;;;;;;;;;5.03;67.89;95959.72;5022097;28;20423;-68
2022/05/21 01:54:24;;;;;;;;;;;;;;;5.14;68.38;95956.16;5022403;28;20009;-67
2022/05/21 01:56:49;;;;;;;;;;;;;;;5.40;67.20;95956.47;5022029;28;19989;-68
2022/05/21 01:59:14;;;;;;;;;;;;;;;5.29;67.15;95959.25;5021630;28;20073;-67
2022/05/21 02:01:40;;;;;;;;;;;;;;;4.77;69.10;95954.91;5021784;28;19985;-68
2022/05/21 02:04:05;;;;;;;;;;;;;;;5.13;68.19;95963.25;5021218;28;20010;-67
2022/05/21 02:06:30;;;;;;;;;;;;;;;5.28;67.22;95961.06;5022408;28;20200;-68
2022/05/21 02:08:55;;;;;;;;;;;;;;;6.08;64.82;95961.91;5016157;28;20465;-67
2022/05/21 02:11:21;;;;;;;;;;;;;;;6.06;64.35;95966.50;5021569;28;19984;-68
2022/05/21 02:13:46;;;;;;;;;;;;;;;5.45;66.50;95954.25;5021832;28;20032;-67
2022/05/21 02:16:11;;;;;;;;;;;;;;;5.72;65.63;95963.31;5021197;28;20000;-67
2022/05/21 02:18:36;;;;;;;;;;;;;;;6.27;64.11;95962.84;5021484;28;19999;-67
2022/05/21 02:21:03;;;;;;;;;;;;;;;5.67;65.44;95967.34;5021609;28;20449;-68
2022/05/21 02:23:28;;;;;;;;;;;;;;;5.96;65.21;95972.63;5021539;28;20059;-67
2022/05/21 02:25:57;;;;;;;;;;;;;;;5.92;65.14;95973.06;5021801;28;20438;-69
2022/05/21 02:28:22;;;;;;;;;;;;;;;5.09;67.54;95978.53;5021547;28;19993;-68
2022/05/21 02:30:47;;;;;;;;;;;;;;;5.44;65.98;95967.63;5021608;28;20397;-67
2022/05/21 02:33:12;;;;;;;;;;;;;;;5.84;64.95;95974.59;5021262;28;20043;-68
2022/05/21 02:35:38;;;;;;;;;;;;;;;5.88;64.24;95958.47;5021119;28;19989;-68
2022/05/21 02:40:47;;;;;;;;;;;;;;;6.08;63.23;95951.34;5015673;28;20008;-68
2022/05/21 02:43:12;;;;;;;;;;;;;;;6.43;62.09;95956.97;5022224;28;19969;-68
2022/05/21 02:45:38;;;;;;;;;;;;;;;7.06;59.69;95958.16;5021435;28;20490;-69
2022/05/21 02:48:03;;;;;;;;;;;;;;;6.99;59.44;95957.06;5021221;28;20398;-67
2022/05/21 02:50:30;;;;;;;;;;;;;;;7.04;59.45;95960.09;5021910;28;20060;-68
2022/05/21 02:52:56;;;;;;;;;;;;;;;7.10;58.64;95958.69;5021894;28;19997;-67
2022/05/21 02:55:21;;;;;;;;;;;;;;;6.99;58.89;95963.22;5021553;28;20371;-67
2022/05/21 02:57:46;;;;;;;;;;;;;;;7.11;58.65;95955.06;5022158;28;20072;-68
2022/05/21 03:00:13;;;;;;;;;;;;;;;6.80;59.08;95958.00;5019978;28;20092;-69
2022/05/21 03:02:39;;;;;;;;;;;;;;;5.86;61.96;95971.81;5021980;28;19981;-67
2022/05/21 03:05:04;;;;;;;;;;;;;;;6.43;60.64;95963.09;5021652;28;20055;-67
2022/05/21 03:07:30;;;;;;;;;;;;;;;6.08;61.55;95965.41;5021923;28;19976;-68
2022/05/21 03:12:39;;;;;;;;;;;;;;;5.95;61.28;95952.47;5021361;28;20000;-67
2022/05/21 03:15:04;;;;;;;;;;;;;;;6.32;60.32;95953.53;5022157;28;19982;-68
2022/05/21 03:17:29;;;;;;;;;;;;;;;6.23;60.89;95957.03;5021544;28;19996;-68
2022/05/21 03:19:55;;;;;;;;;;;;;;;6.58;59.48;95952.94;5021548;28;20040;-68
2022/05/21 03:22:20;;;;;;;;;;;;;;;6.47;59.32;95955.72;5022009;28;20062;-68
2022/05/21 03:24:45;;;;;;;;;;;;;;;6.57;59.07;95955.72;5021200;28;20001;-68
2022/05/21 03:27:10;;;;;;;;;;;;;;;6.61;58.75;95959.75;5021668;28;20001;-68
2022/05/21 03:29:37;;;;;;;;;;;;;;;6.45;59.22;95958.50;5024558;28;20005;-68
2022/05/21 03:32:02;;;;;;;;;;;;;;;6.38;59.42;95957.41;5025024;28;20378;-68
2022/05/21 03:34:28;;;;;;;;;;;;;;;6.32;59.46;95964.09;5025408;28;20250;-68
2022/05/21 03:36:53;;;;;;;;;;;;;;;5.95;60.28;95964.88;5024779;28;20065;-68
2022/05/21 03:39:18;;;;;;;;;;;;;;;5.96;60.42;95971.81;5012269;28;20499;-68
2022/05/21 03:41:43;;;;;;;;;;;;;;;6.01;59.63;95963.47;5016552;28;19988;-67
2022/05/21 03:44:09;;;;;;;;;;;;;;;6.38;58.82;95960.06;5019491;28;20008;-68
2022/05/21 03:46:38;;;;;;;;;;;;;;;6.82;57.99;95961.31;5024933;28;20707;-68
2022/05/21 03:49:03;;;;;;;;;;;;;;;6.96;56.88;95962.66;5024136;28;19990;-68
2022/05/21 03:51:28;;;;;;;;;;;;;;;7.00;56.73;95959.59;5024456;28;19976;-68
2022/05/21 03:53:54;;;;;;;;;;;;;;;7.83;54.75;95961.44;5024709;28;20335;-68
2022/05/21 03:56:19;;;;;;;;;;;;;;;8.25;54.02;95963.44;5024545;28;19994;-68
2022/05/21 03:58:44;;;;;;;;;;;;;;;8.26;53.05;95965.09;5024503;28;19974;-67
2022/05/21 04:01:09;;;;;;;;;;;;;;;7.72;55.34;95971.25;5023162;28;19992;-67
2022/05/21 04:03:35;;;;;;;;;;;;;;;8.29;52.83;95967.47;5023953;28;20454;-68
2022/05/21 04:06:00;;;;;;;;;;;;;;;8.21;53.18;95967.41;5024479;28;20536;-68
2022/05/21 04:08:25;;;;;;;;;;;;;;;8.37;53.20;95976.47;5017785;28;20005;-67
2022/05/21 04:10:51;;;;;;;;;;;;;;;8.49;52.52;95975.22;5024180;28;20458;-68
2022/05/21 04:13:16;;;;;;;;;;;;;;;8.76;51.98;95969.88;5024000;28;20556;-67
2022/05/21 04:15:41;;;;;;;;;;;;;;;8.76;52.10;95973.38;5024179;28;20444;-68
2022/05/21 04:18:07;;;;;;;;;;;;;;;8.02;53.09;95977.19;5024122;28;20491;-67
2022/05/21 04:20:32;;;;;;;;;;;;;;;6.94;56.56;95983.97;5023894;28;19989;-67
2022/05/21 04:22:57;;;;;;;;;;;;;;;7.89;54.60;95982.06;5024465;28;19984;-67
2022/05/21 04:25:22;;;;;;;;;;;;;;;8.04;53.50;95983.19;5023788;28;20005;-67
2022/05/21 04:27:48;;;;;;;;;;;;;;;8.00;53.96;95976.53;5022413;28;20077;-68
2022/05/21 04:30:17;;;;;;;;;;;;;;;8.01;53.96;95974.69;5022258;28;19994;-67
2022/05/21 04:32:46;;;;;;;;;;;;;;;7.11;56.50;95985.00;5023786;28;19993;-68
2022/05/21 04:35:11;;;;;;;;;;;;;;;7.37;56.36;95983.50;5023834;28;20365;-67
2022/05/21 04:37:37;;;;;;;;;;;;;;;7.26;56.15;95981.88;5022990;28;20088;-68
2022/05/21 04:40:03;;;;;;;;;;;;;;;6.91;57.76;95980.81;5022028;28;20095;-68
2022/05/21 04:42:28;;;;;;;;;;;;;;;6.73;58.00;95985.03;5010384;28;19973;-67
2022/05/21 04:44:53;;;;;;;;;;;;;;;6.63;58.07;95981.59;5023446;28;20004;-67
2022/05/21 04:47:18;;;;;;;;;;;;;;;6.81;58.42;95986.13;5023239;28;19980;-67
2022/05/21 04:49:44;;;;;;;;;;;;;;;7.19;57.20;95988.75;5024021;28;20627;-68
2022/05/21 04:52:09;;;;;;;;;;;;;;;7.30;56.73;95988.56;5023276;28;20347;-67
2022/05/21 04:54:35;;;;;;;;;;;;;;;7.77;55.60;95990.25;5023540;28;19977;-68
2022/05/21 04:57:00;;;;;;;;;;;;;;;8.12;54.37;95985.06;5023003;28;20000;-68
2022/05/21 04:59:25;;;;;;;;;;;;;;;7.47;55.43;95981.63;5023267;28;19982;-69
2022/05/21 05:01:51;;;;;;;;;;;;;;;8.36;54.12;95980.94;5023364;28;19984;-68
2022/05/21 05:04:16;;;;;;;;;;;;;;;8.28;53.85;95983.53;5023002;28;20041;-68
2022/05/21 05:06:41;;;;;;;;;;;;;;;8.27;54.24;95990.63;5023310;28;20430;-68
2022/05/21 05:09:06;;;;;;;;;;;;;;;7.84;53.95;95992.28;5017116;28;20682;-67
2022/05/21 05:11:32;;;;;;;;;;;;;;;8.53;53.42;95996.94;5023077;28;20377;-68
2022/05/21 05:13:57;;;;;;;;;;;;;;;7.83;55.24;95999.41;5010288;28;20023;-68
2022/05/21 05:16:22;;;;;;;;;;;;;;;8.76;52.69;95989.31;5023040;28;20028;-68
2022/05/21 05:18:47;;;;;;;;;;;;;;;8.49;53.25;95987.63;5023169;28;20528;-68
2022/05/21 05:21:13;;;;;;;;;;;;;;;7.58;55.73;95987.69;5023114;28;19989;-68
2022/05/21 05:23:38;;;;;;;;;;;;;;;6.97;57.22;95993.47;5022595;28;20005;-68
2022/05/21 05:26:03;;;;;;;;;;;;;;;7.61;56.23;95993.53;5023406;28;19973;-68
2022/05/21 05:28:29;;;;;;;;;;;;;;;7.52;56.21;96003.19;5022635;28;20420;-68
2022/05/21 05:30:54;;;;;;;;;;;;;;;7.21;57.09;96000.03;5022847;28;20071;-68
2022/05/21 05:33:19;;;;;;;;;;;;;;;7.83;55.51;96001.22;5022698;28;20438;-67
2022/05/21 05:35:45;;;;;;;;;;;;;;;7.82;55.56;95997.72;5021103;28;19998;-68
2022/05/21 05:38:11;;;;;;;;;;;;;;;7.43;55.91;95996.16;5021209;28;20151;-67
2022/05/21 05:40:36;;;;;;;;;;;;;;;7.59;55.75;95978.75;5022276;28;20181;-68
2022/05/21 05:43:01;;;;;;;;;;;;;;;7.48;56.31;95987.75;5022622;28;20035;-67
2022/05/21 05:45:27;;;;;;;;;;;;;;;7.72;55.95;95991.66;5022386;28;20168;-68
2022/05/21 05:47:52;;;;;;;;;;;;;;;7.29;57.10;95984.25;5022504;28;20470;-67
2022/05/21 05:50:17;;;;;;;;;;;;;;;7.19;57.60;95994.03;5020971;28;19978;-68
2022/05/21 05:52:43;;;;;;;;;;;;;;;7.76;55.61;95987.72;5022211;28;20051;-67
2022/05/21 05:55:08;;;;;;;;;;;;;;;7.62;55.83;95991.72;5022440;28;19974;-68
2022/05/21 05:57:33;;;;;;;;;;;;;;;7.57;56.33;96005.41;5022120;28;20020;-68
2022/05/21 05:59:59;;;;;;;;;;;;;;;8.05;54.80;95999.91;5022238;28;20440;-68
2022/05/21 06:05:11;;;;;;;;;;;;;;;7.33;55.98;96019.19;5021785;28;20004;-68
2022/05/21 06:07:49;;;;;;;;;;;;;;;7.10;57.62;96001.03;5013263;28;19990;-68
2022/05/21 06:10:15;;;;;;;;;;;;;;;6.17;59.32;96015.75;5022076;28;19969;-67
2022/05/21 06:12:40;;;;;;;;;;;;;;;6.41;59.13;96007.38;5022050;28;19990;-67
2022/05/21 06:15:06;;;;;;;;;;;;;;;6.20;59.75;96003.09;5022550;28;19973;-67
2022/05/21 06:17:31;;;;;;;;;;;;;;;6.24;59.26;96001.84;5021747;28;19994;-67
2022/05/21 06:19:57;;;;;;;;;;;;;;;5.19;62.19;96018.16;5021983;28;20059;-67
2022/05/21 06:22:22;;;;;;;;;;;;;;;5.93;61.53;96009.09;5022387;28;20034;-67
2022/05/21 06:24:47;;;;;;;;;;;;;;;5.52;61.86;96011.81;5021646;28;20005;-67
2022/05/21 06:27:12;;;;;;;;;;;;;;;5.50;62.58;96013.78;5021507;28;19970;-68
2022/05/21 06:29:38;;;;;;;;;;;;;;;6.40;60.14;96016.28;5021792;28;20400;-68
2022/05/21 06:32:06;;;;;;;;;;;;;;;5.83;61.54;96011.72;5021911;28;19993;-68
2022/05/21 06:34:32;;;;;;;;;;;;;;;5.96;61.29;96009.63;5022641;28;19973;-69
2022/05/21 06:37:02;;;;;;;;;;;;;;;6.04;61.04;96008.09;5020343;28;20551;-68
2022/05/21 06:39:27;;;;;;;;;;;;;;;6.26;60.65;96014.94;5008764;28;19981;-67
2022/05/21 06:41:52;;;;;;;;;;;;;;;5.81;61.62;96011.84;5021506;28;19970;-68
2022/05/21 06:44:17;;;;;;;;;;;;;;;6.59;59.79;96026.03;5021139;28;20002;-67
2022/05/21 06:46:43;;;;;;;;;;;;;;;6.68;60.00;96019.03;5022065;28;20064;-67
2022/05/21 06:49:08;;;;;;;;;;;;;;;7.01;59.06;96026.59;5021581;28;20202;-68
2022/05/21 06:51:33;;;;;;;;;;;;;;;6.90;59.27;96019.66;5021115;28;19992;-68
2022/05/21 06:53:58;;;;;;;;;;;;;;;6.56;59.82;96028.13;5022159;28;20354;-67
2022/05/21 06:56:24;;;;;;;;;;;;;;;6.58;59.61;96034.09;5021314;28;20321;-67
2022/05/21 06:58:50;;;;;;;;;;;;;;;6.12;61.05;96029.38;5022053;28;20060;-67
2022/05/21 07:01:16;;;;;;;;;;;;;;;5.69;61.98;96024.38;5021377;28;20517;-68
2022/05/21 07:03:41;;;;;;;;;;;;;;;5.78;62.05;96021.88;5023332;28;20163;-67
2022/05/21 07:08:50;;;;;;;;;;;;;;;5.81;61.64;96021.59;5019197;28;20199;-67
2022/05/21 07:11:15;;;;;;;;;;;;;;;6.14;61.29;96027.44;5024784;28;20006;-67
2022/05/21 07:13:40;;;;;;;;;;;;;;;5.71;62.03;96038.28;5025730;28;19973;-68
2022/05/21 07:16:05;;;;;;;;;;;;;;;5.71;62.71;96042.72;5024838;28;20370;-68
2022/05/21 07:18:30;;;;;;;;;;;;;;;5.88;61.34;96046.50;5025327;28;19965;-67
2022/05/21 07:20:56;;;;;;;;;;;;;;;5.74;61.75;96043.28;5024921;28;20052;-67
2022/05/21 07:23:21;;;;;;;;;;;;;;;6.05;60.89;96044.16;5024817;28;19975;-67
2022/05/21 07:25:49;;;;;;;;;;;;;;;5.41;62.67;96041.84;5025547;28;19970;-67
2022/05/21 07:28:15;;;;;;;;;;;;;;;5.19;63.12;96063.03;5024877;28;20120;-68
2022/05/21 07:30:40;;;;;;;;;;;;;;;5.37;63.20;96049.16;5024829;28;20514;-68
2022/05/21 07:33:08;;;;;;;;;;;;;;;5.48;62.97;96059.63;5024874;28;19993;-67
2022/05/21 07:35:36;;;;;;;;;;;;;;;6.09;61.41;96056.94;5024716;28;19976;-68
2022/05/21 07:38:01;;;;;;;;;;;;;;;6.76;59.86;96058.84;5023499;28;19969;-67
2022/05/21 07:40:26;;;;;;;;;;;;;;;6.98;58.41;96072.75;5024775;28;20080;-67
2022/05/21 07:42:52;;;;;;;;;;;;;;;7.16;57.01;96064.03;5011569;28;20012;-68
2022/05/21 07:45:17;;;;;;;;;;;;;;;7.25;58.31;96064.97;5024655;28;20108;-67
2022/05/21 07:47:43;;;;;;;;;;;;;;;8.15;54.97;96064.31;5024160;28;19995;-67
2022/05/21 07:50:08;;;;;;;;;;;;;;;7.88;56.16;96063.41;5024567;28;20009;-68
2022/05/21 07:52:33;;;;;;;;;;;;;;;7.87;54.99;96071.50;5024555;28;20080;-68
2022/05/21 07:54:59;;;;;;;;;;;;;;;7.69;55.44;96058.19;5025115;28;20434;-67
2022/05/21 07:57:24;;;;;;;;;;;;;;;7.53;55.76;96071.13;5024403;28;20407;-68
2022/05/21 07:59:50;;;;;;;;;;;;;;;7.53;55.51;96075.56;5024506;28;19997;-67
2022/05/21 08:02:16;;;;;;;;;;;;;;;7.81;55.10;96082.69;5024826;28;20377;-67
2022/05/21 08:04:41;;;;;;;;;;;;;;;6.82;56.93;96072.47;5024310;28;20013;-67
2022/05/21 08:07:07;;;;;;;;;;;;;;;6.55;58.20;96074.06;5024260;28;19977;-68
2022/05/21 08:09:32;;;;;;;;;;;;;;;7.33;56.99;96080.13;5017807;28;19985;-67
2022/05/21 08:11:57;;;;;;;;;;;;;;;7.26;57.13;96077.22;5022448;28;20000;-67
2022/05/21 08:14:23;;;;;;;;;;;;;;;7.68;56.17;96065.31;5024575;28;19973;-68
2022/05/21 08:16:49;;;;;;;;;;;;;;;8.18;53.95;96068.50;5024129;28;20402;-68
2022/05/21 08:19:14;;;;;;;;;;;;;;;8.11;53.24;96059.47;5023042;28;19996;-68
2022/05/21 08:21:39;;;;;;;;;;;;;;;7.93;53.69;96065.63;5023837;28;20108;-68
2022/05/21 08:26:58;;;;;;;;;;;;;;;7.98;56.23;96063.34;5023992;28;19977;-67
2022/05/21 08:29:24;;;;;;;;;;;;;;;8.87;52.45;96072.34;5017538;28;20007;-68
2022/05/21 08:31:49;;;;;;;;;;;;;;;9.63;51.34;96067.28;5024120;28;20001;-68
2022/05/21 08:34:14;;;;;;;;;;;;;;;9.16;50.17;96077.38;5023965;28;19980;-67
2022/05/21 08:36:39;;;;;;;;;;;;;;;9.63;50.02;96074.41;5023849;28;20026;-67
2022/05/21 08:39:05;;;;;;;;;;;;;;;9.79;49.11;96077.13;5011100;28;20315;-67
2022/05/21 08:41:31;;;;;;;;;;;;;;;9.82;48.29;96065.31;5023470;28;19989;-68
2022/05/21 08:44:01;;;;;;;;;;;;;;;10.05;49.10;96070.91;5023812;28;19997;-68
2022/05/21 08:47:04;;;;;;;;;;;;;;;9.66;50.96;96072.25;5024409;28;20009;-68
2022/05/21 08:49:30;;;;;;;;;;;;;;;9.81;49.91;96064.50;4980767;28;19986;-68
2022/05/21 08:52:04;;;;;;;;;;;;;;;9.21;48.42;96066.25;4981104;28;20000;-68
2022/05/21 08:54:32;;;;;;;;;;;;;;;10.44;46.39;96056.13;4990629;28;19972;-68
2022/05/21 08:56:57;;;;;;;;;;;;;;;10.10;46.40;96049.97;5023109;28;20132;-68
2022/05/21 08:59:24;;;;;;;;;;;;;;;10.39;45.68;96065.59;5023254;28;20070;-67
2022/05/21 09:01:49;;;;;;;;;;;;;;;10.42;46.13;96063.47;5023543;28;19990;-69
2022/05/21 09:04:14;;;;;;;;;;;;;;;10.05;47.50;96064.72;5023087;28;19998;-67
2022/05/21 09:06:43;;;;;;;;;;;;;;;10.79;47.36;96087.06;5023634;28;20005;-67
2022/05/21 09:09:20;;;;;;;;;;;;;;;9.41;49.80;96088.13;5016893;28;19996;-68
2022/05/21 09:11:49;;;;;;;;;;;;;;;9.50;48.54;96083.69;5022578;28;20032;-68
2022/05/21 09:14:22;;;;;;;;;;;;;;;9.26;49.11;96087.88;5023334;28;20443;-68
2022/05/21 09:16:56;;;;;;;;;;;;;;;9.47;48.25;96086.66;5022632;28;19990;-68
2022/05/21 09:19:24;;;;;;;;;;;;;;;10.23;47.36;96088.53;5021409;28;19992;-68
2022/05/21 09:21:55;;;;;;;;;;;;;;;10.57;46.52;96079.59;5023401;28;20421;-68
2022/05/21 09:24:53;;;;;;;;;;;;;;;11.09;46.04;96082.06;5022510;28;19997;-68
2022/05/21 09:27:30;;;;;;;;;;;;;;;11.01;44.91;96085.53;4974215;28;19980;-68
2022/05/21 09:30:11;;;;;;;;;;;;;;;10.56;46.30;96083.25;5023690;28;20524;-68
2022/05/21 09:32:36;;;;;;;;;;;;;;;10.86;46.23;96080.06;5023148;28;20486;-68
2022/05/21 09:35:03;;;;;;;;;;;;;;;10.31;46.50;96096.56;5023449;28;19981;-69
2022/05/21 09:37:29;;;;;;;;;;;;;;;9.84;47.45;96098.75;5023444;28;20088;-69
2022/05/21 09:39:54;;;;;;;;;;;;;;;10.47;45.72;96097.53;5021454;28;20084;-68
2022/05/21 09:45:22;;;;;;;;;;;;;;;10.09;47.08;96108.66;5022723;28;20074;-67
2022/05/21 09:48:08;;;;;;;;;;;;;;;10.39;47.46;96113.50;5022977;28;20494;-68
2022/05/21 09:50:43;;;;;;;;;;;;;;;10.61;46.56;96110.22;5015523;28;19969;-67
2022/05/21 09:53:27;;;;;;;;;;;;;;;9.79;48.30;96103.72;5022833;28;20291;-67
2022/05/21 09:55:56;;;;;;;;;;;;;;;9.56;49.68;96096.31;5022716;28;19994;-67
2022/05/21 09:58:21;;;;;;;;;;;;;;;9.44;48.33;96121.50;5023164;28;19977;-68
2022/05/21 10:00:52;;;;;;;;;;;;;;;9.56;47.84;96120.22;5020890;28;20001;-67
2022/05/21 10:03:17;;;;;;;;;;;;;;;10.29;47.26;96113.66;5023191;28;20359;-67
2022/05/21 10:05:46;;;;;;;;;;;;;;;9.62;47.02;96123.25;5021089;28;19998;-68
2022/05/21 10:11:12;;;;;;;;;;;;;;;9.62;47.93;96124.09;5021536;28;20407;-67
2022/05/21 10:13:39;;;;;;;;;;;;;;;9.71;47.49;96112.50;5021168;28;20181;-68
2022/05/21 10:16:43;;;;;;;;;;;;;;;10.00;46.51;96114.91;5021032;28;20116;-68
2022/05/21 10:19:14;;;;;;;;;;;;;;;10.33;48.60;96099.88;4990051;28;20439;-68
2022/05/21 10:21:52;;;;;;;;;;;;;;;11.28;45.11;96093.38;4999447;28;20087;-68
2022/05/21 10:24:18;;;;;;;;;;;;;;;11.00;44.81;96092.72;5001356;28;20006;-68
2022/05/21 10:27:19;;;;;;;;;;;;;;;11.78;44.38;96080.66;5020411;28;19965;-68
2022/05/21 10:29:47;;;;;;;;;;;;;;;11.18;42.34;96107.69;5015988;28;20011;-68
2022/05/21 10:32:17;;;;;;;;;;;;;;;11.25;43.73;96086.50;5021482;28;20505;-70
2022/05/21 10:34:53;;;;;;;;;;;;;;;11.75;41.48;96084.50;5022763;28;19969;-70
2022/05/21 10:37:26;;;;;;;;;;;;;;;11.82;44.03;96086.47;5023952;28;19993;-68
2022/05/21 10:39:57;;;;;;;;;;;;;;;11.94;42.06;96079.75;5013472;28;20216;-68
2022/05/21 10:42:42;;;;;;;;;;;;;;;11.89;41.88;96088.28;5013753;28;20438;-68
2022/05/21 10:45:25;;;;;;;;;;;;;;;11.44;45.54;96079.13;5026276;28;20004;-68
2022/05/21 10:47:58;;;;;;;;;;;;;;;11.18;44.44;96089.03;5024854;28;20296;-68
2022/05/21 10:50:26;;;;;;;;;;;;;;;11.38;44.59;96108.16;5025246;28;20068;-68
2022/05/21 10:53:10;;;;;;;;;;;;;;;11.43;43.98;96094.31;5024867;28;20486;-67
2022/05/21 10:55:41;;;;;;;;;;;;;;;11.82;43.03;96099.81;5026114;28;20001;-68
2022/05/21 10:58:20;;;;;;;;;;;;;;;11.77;41.69;96097.69;5026435;28;19969;-68
2022/05/21 11:01:08;;;;;;;;;;;;;;;11.51;42.87;96091.63;5024824;28;19997;-70
2022/05/21 11:03:33;;;;;;;;;;;;;;;11.48;42.62;96096.44;5025737;28;20490;-69
2022/05/21 11:06:17;;;;;;;;;;;;;;;11.75;45.41;96092.50;5026383;28;20015;-68
2022/05/21 11:08:46;;;;;;;;;;;;;;;11.88;44.90;96094.63;5019441;28;20414;-68
2022/05/21 11:11:29;;;;;;;;;;;;;;;12.73;41.37;96101.94;5012766;28;20163;-68
2022/05/21 11:13:57;;;;;;;;;;;;;;;12.15;41.88;96091.66;5019506;28;20419;-69
2022/05/21 11:16:30;;;;;;;;;;;;;;;12.76;40.61;96095.41;5020464;28;20385;-70
2022/05/21 11:18:57;;;;;;;;;;;;;;;13.38;35.80;96092.66;5011857;28;20079;-70
2022/05/21 11:21:36;;;;;;;;;;;;;;;13.61;36.35;96099.75;5019783;28;20584;-69
2022/05/21 11:24:03;;;;;;;;;;;;;;;13.38;36.71;96087.28;5020180;28;20069;-70
2022/05/21 11:26:37;;;;;;;;;;;;;;;13.74;36.61;96085.72;5021557;28;19975;-68
2022/05/21 11:29:24;;;;;;;;;;;;;;;12.96;38.32;96095.72;5020624;28;20011;-69
2022/05/21 11:37:25;;;;;;;;;;;;;;;12.09;41.14;96109.22;5020984;28;20028;-68
2022/05/21 11:39:50;;;;;;;;;;;;;;;12.62;40.64;96119.19;5018891;28;20040;-68
2022/05/21 11:42:17;;;;;;;;;;;;;;;12.50;42.73;96100.09;5008473;28;19973;-67
2022/05/21 11:44:56;;;;;;;;;;;;;;;11.63;41.93;96112.56;5021036;28;20268;-69
2022/05/21 11:47:22;;;;;;;;;;;;;;;11.99;41.67;96098.72;5019229;28;20410;-68
2022/05/21 11:50:03;;;;;;;;;;;;;;;12.13;44.42;96099.84;5020822;28;20008;-67
2022/05/21 11:52:32;;;;;;;;;;;;;;;12.77;40.31;96099.72;5020624;28;20521;-67
2022/05/21 11:54:57;;;;;;;;;;;;;;;14.02;38.68;96085.03;5021846;28;19966;-68
2022/05/21 11:57:28;;;;;;;;;;;;;;;14.27;37.14;96093.56;5020416;28;20197;-69
2022/05/21 11:59:53;;;;;;;;;;;;;;;14.16;38.08;96083.34;5020808;28;20001;-68
2022/05/21 12:02:21;;;;;;;;;;;;;;;13.99;37.04;96080.91;5020856;28;19971;-68
2022/05/21 12:04:47;;;;;;;;;;;;;;;13.57;39.16;96089.41;5010757;28;19996;-68
2022/05/21 12:07:17;;;;;;;;;;;;;;;13.62;36.69;96072.81;5020804;28;20475;-68
2022/05/21 12:10:02;;;;;;;;;;;;;;;12.35;39.75;96096.53;5011889;28;19989;-68
2022/05/21 12:12:28;;;;;;;;;;;;;;;11.98;40.10;96090.91;5019824;28;20084;-68
2022/05/21 12:14:57;;;;;;;;;;;;;;;12.17;39.37;96089.63;5019647;28;20056;-68
2022/05/21 12:17:36;;;;;;;;;;;;;;;12.61;39.25;96082.00;5018466;28;20799;-68
2022/05/21 12:20:04;;;;;;;;;;;;;;;12.73;38.55;96085.91;5020817;28;20463;-67
2022/05/21 12:22:32;;;;;;;;;;;;;;;13.02;39.35;96089.66;5020912;28;20431;-68
2022/05/21 12:24:58;;;;;;;;;;;;;;;12.98;39.25;96095.56;5020101;28;20462;-67
2022/05/21 12:27:24;;;;;;;;;;;;;;;13.24;39.21;96079.09;5018557;28;19992;-69
2022/05/21 12:29:55;;;;;;;;;;;;;;;13.03;38.50;96082.50;5018668;28;20216;-68
2022/05/21 12:32:24;;;;;;;;;;;;;;;13.76;37.95;96071.13;5016257;28;20003;-68
2022/05/21 12:34:58;;;;;;;;;;;;;;;13.90;36.90;96072.16;5017518;28;19996;-68
2022/05/21 12:37:24;;;;;;;;;;;;;;;13.62;36.06;96086.19;5005690;28;19992;-66
2022/05/21 12:40:06;;;;;;;;;;;;;;;13.55;36.68;96079.91;4998865;28;19969;-68
2022/05/21 12:42:35;;;;;;;;;;;;;;;14.13;37.23;96073.84;5017489;28;20112;-67
2022/05/21 12:45:00;;;;;;;;;;;;;;;15.03;35.25;96071.78;5019045;28;20435;-67
2022/05/21 12:47:29;;;;;;;;;;;;;;;13.46;36.26;96084.53;5019495;28;20033;-67
2022/05/21 12:49:54;;;;;;;;;;;;;;;13.52;36.35;96080.28;5010715;28;20080;-68
2022/05/21 12:52:21;;;;;;;;;;;;;;;13.37;36.72;96086.50;5017456;28;20063;-67
2022/05/21 12:54:46;;;;;;;;;;;;;;;12.77;38.65;96084.53;5017363;28;20368;-67
2022/05/21 12:57:12;;;;;;;;;;;;;;;13.55;37.77;96080.75;5018553;28;20249;-67
2022/05/21 12:59:39;;;;;;;;;;;;;;;12.87;38.40;96089.63;5019288;28;19971;-67
2022/05/21 13:02:14;;;;;;;;;;;;;;;13.48;37.42;96073.66;5015321;28;20031;-67
2022/05/21 13:04:41;;;;;;;;;;;;;;;13.46;36.58;96079.19;5009318;28;20057;-67
2022/05/21 13:07:06;;;;;;;;;;;;;;;14.30;36.01;96062.88;5015855;28;19973;-67
2022/05/21 13:09:35;;;;;;;;;;;;;;;14.09;35.04;96064.53;5009680;28;21056;-67
2022/05/21 13:12:00;;;;;;;;;;;;;;;14.56;34.58;96073.03;5018609;28;20489;-67
2022/05/21 13:14:35;;;;;;;;;;;;;;;14.62;34.79;96065.25;5018340;28;19990;-67
2022/05/21 13:17:01;;;;;;;;;;;;;;;14.46;33.46;96067.16;5016429;28;19967;-67
2022/05/21 13:19:35;;;;;;;;;;;;;;;13.71;35.92;96068.19;5011092;28;20497;-68
2022/05/21 13:22:06;;;;;;;;;;;;;;;14.35;36.30;96065.84;5014451;28;20460;-68
2022/05/21 13:24:49;;;;;;;;;;;;;;;14.53;38.06;96067.22;5016720;28;19997;-68